sensor_id;sensor_type;location;lat;lon;timestamp;noise_LAeq;noise_LA_min;noise_LA_max;noise_LA01;noise_LA95
67310;Laerm;65444;51.438;5.982;2024-03-02T00:00:24;37.81;30.15;52.71;;
67310;Laerm;65444;51.438;5.982;2024-03-02T00:00:35;32.84;30.94;41.39;;
67310;Laerm;65444;51.438;5.982;2024-03-02T00:00:49;33.45;31.56;35.77;;
67310;Laerm;65444;51.438;5.982;2024-03-02T00:01:12;34.73;31.89;41.28;;
67310;Laerm;65444;51.438;5.982;2024-03-02T00:01:23;43.50;31.00;59.02;;
67310;Laerm;65444;51.438;5.982;2024-03-02T00:01:36;38.10;30.80;55.37;;
67310;Laerm;65444;51.438;5.982;2024-03-02T00:01:47;41.65;32.12;53.05;;
67310;Laerm;65444;51.438;5.982;2024-03-02T00:02:06;48.49;32.38;61.62;;
67310;Laerm;65444;51.438;5.982;2024-03-02T00:02:20;39.45;32.13;48.43;;
67310;Laerm;65444;51.438;5.982;2024-03-02T00:02:30;44.81;37.56;52.06;;
67310;Laerm;65444;51.438;5.982;2024-03-02T00:02:44;44.91;37.68;52.26;;
67310;Laerm;65444;51.438;5.982;2024-03-02T00:03:05;43.91;36.20;51.83;;
67310;Laerm;65444;51.438;5.982;2024-03-02T00:03:21;41.97;34.01;56.07;;
67310;Laerm;65444;51.438;5.982;2024-03-02T00:03:38;37.20;32.18;45.74;;
67310;Laerm;65444;51.438;5.982;2024-03-02T00:03:49;34.40;31.59;38.98;;
67310;Laerm;65444;51.438;5.982;2024-03-02T00:04:03;33.46;31.39;38.71;;
67310;Laerm;65444;51.438;5.982;2024-03-02T00:04:14;33.62;31.48;37.57;;
67310;Laerm;65444;51.438;5.982;2024-03-02T00:04:44;35.93;30.61;48.61;;
67310;Laerm;65444;51.438;5.982;2024-03-02T00:04:54;33.66;30.86;38.36;;
67310;Laerm;65444;51.438;5.982;2024-03-02T00:05:07;34.57;32.62;42.58;;
67310;Laerm;65444;51.438;5.982;2024-03-02T00:05:26;33.00;31.27;38.68;;
67310;Laerm;65444;51.438;5.982;2024-03-02T00:05:41;33.90;30.21;45.97;;
67310;Laerm;65444;51.438;5.982;2024-03-02T00:05:52;33.29;31.22;42.65;;
67310;Laerm;65444;51.438;5.982;2024-03-02T00:07:26;36.05;29.80;54.80;;
67310;Laerm;65444;51.438;5.982;2024-03-02T00:07:37;37.78;30.34;55.40;;
67310;Laerm;65444;51.438;5.982;2024-03-02T00:07:54;34.34;31.18;37.38;;
67310;Laerm;65444;51.438;5.982;2024-03-02T00:08:06;42.92;30.98;58.06;;
67310;Laerm;65444;51.438;5.982;2024-03-02T00:08:23;43.35;29.56;62.07;;
67310;Laerm;65444;51.438;5.982;2024-03-02T00:08:38;31.34;29.64;33.55;;
67310;Laerm;65444;51.438;5.982;2024-03-02T00:08:51;31.84;29.73;33.97;;
67310;Laerm;65444;51.438;5.982;2024-03-02T00:09:05;33.03;29.72;37.20;;
67310;Laerm;65444;51.438;5.982;2024-03-02T00:09:16;31.58;29.82;33.10;;
67310;Laerm;65444;51.438;5.982;2024-03-02T00:09:26;33.06;30.53;43.02;;
67310;Laerm;65444;51.438;5.982;2024-03-02T00:09:37;31.60;30.16;33.34;;
67310;Laerm;65444;51.438;5.982;2024-03-02T00:09:53;31.09;29.65;35.14;;
67310;Laerm;65444;51.438;5.982;2024-03-02T00:10:09;33.34;29.33;45.50;;
67310;Laerm;65444;51.438;5.982;2024-03-02T00:10:28;32.01;29.45;41.59;;
67310;Laerm;65444;51.438;5.982;2024-03-02T00:10:41;32.02;29.38;44.87;;
67310;Laerm;65444;51.438;5.982;2024-03-02T00:10:57;34.42;29.74;43.45;;
67310;Laerm;65444;51.438;5.982;2024-03-02T00:11:07;32.78;29.89;44.55;;
67310;Laerm;65444;51.438;5.982;2024-03-02T00:11:18;34.21;30.82;37.42;;
67310;Laerm;65444;51.438;5.982;2024-03-02T00:11:29;34.31;31.02;39.85;;
67310;Laerm;65444;51.438;5.982;2024-03-02T00:12:17;39.57;32.16;55.32;;
67310;Laerm;65444;51.438;5.982;2024-03-02T00:12:28;34.50;31.50;38.25;;
67310;Laerm;65444;51.438;5.982;2024-03-02T00:12:41;32.22;30.60;35.62;;
67310;Laerm;65444;51.438;5.982;2024-03-02T00:12:52;36.15;30.78;47.75;;
67310;Laerm;65444;51.438;5.982;2024-03-02T00:13:03;37.86;31.47;46.77;;
67310;Laerm;65444;51.438;5.982;2024-03-02T00:13:18;33.85;31.20;42.37;;
67310;Laerm;65444;51.438;5.982;2024-03-02T00:13:30;33.43;30.10;43.91;;
67310;Laerm;65444;51.438;5.982;2024-03-02T00:13:44;33.10;30.95;43.12;;
67310;Laerm;65444;51.438;5.982;2024-03-02T00:14:03;33.58;30.54;43.37;;
67310;Laerm;65444;51.438;5.982;2024-03-02T00:14:13;34.26;30.42;47.68;;
67310;Laerm;65444;51.438;5.982;2024-03-02T00:14:25;43.23;31.89;59.13;;
67310;Laerm;65444;51.438;5.982;2024-03-02T00:14:35;34.10;31.90;39.38;;
67310;Laerm;65444;51.438;5.982;2024-03-02T00:14:49;33.60;31.28;38.27;;
67310;Laerm;65444;51.438;5.982;2024-03-02T00:15:04;38.72;30.80;54.05;;
67310;Laerm;65444;51.438;5.982;2024-03-02T00:16:51;33.17;29.84;46.23;;
67310;Laerm;65444;51.438;5.982;2024-03-02T00:17:01;32.22;30.20;33.93;;
67310;Laerm;65444;51.438;5.982;2024-03-02T00:17:26;36.55;31.40;48.49;;
67310;Laerm;65444;51.438;5.982;2024-03-02T00:17:37;33.89;30.63;46.30;;
67310;Laerm;65444;51.438;5.982;2024-03-02T00:17:52;32.93;30.71;42.20;;
67310;Laerm;65444;51.438;5.982;2024-03-02T00:18:03;35.68;30.39;51.54;;
67310;Laerm;65444;51.438;5.982;2024-03-02T00:18:30;31.72;30.11;35.28;;
67310;Laerm;65444;51.438;5.982;2024-03-02T00:18:41;32.12;29.94;40.91;;
67310;Laerm;65444;51.438;5.982;2024-03-02T00:18:53;33.40;31.67;35.66;;
67310;Laerm;65444;51.438;5.982;2024-03-02T00:19:05;33.61;30.99;41.21;;
67310;Laerm;65444;51.438;5.982;2024-03-02T00:19:25;38.92;31.40;50.79;;
67310;Laerm;65444;51.438;5.982;2024-03-02T00:19:38;36.83;30.90;51.32;;
67310;Laerm;65444;51.438;5.982;2024-03-02T00:19:51;45.74;32.20;64.91;;
67310;Laerm;65444;51.438;5.982;2024-03-02T00:20:21;34.66;30.71;45.57;;
67310;Laerm;65444;51.438;5.982;2024-03-02T00:20:32;39.83;31.53;59.55;;
67310;Laerm;65444;51.438;5.982;2024-03-02T00:20:43;47.23;33.21;60.93;;
67310;Laerm;65444;51.438;5.982;2024-03-02T00:20:56;40.48;32.77;52.28;;
67310;Laerm;65444;51.438;5.982;2024-03-02T00:21:13;36.48;31.68;47.86;;
67310;Laerm;65444;51.438;5.982;2024-03-02T00:21:29;39.62;31.12;58.09;;
67310;Laerm;65444;51.438;5.982;2024-03-02T00:24:37;43.58;30.80;64.44;;
67310;Laerm;65444;51.438;5.982;2024-03-02T00:24:50;35.03;30.71;45.89;;
67310;Laerm;65444;51.438;5.982;2024-03-02T00:25:01;41.52;31.54;53.26;;
67310;Laerm;65444;51.438;5.982;2024-03-02T00:26:26;38.15;30.36;52.86;;
67310;Laerm;65444;51.438;5.982;2024-03-02T00:26:37;54.12;30.19;70.04;;
67310;Laerm;65444;51.438;5.982;2024-03-02T00:26:48;49.69;33.78;65.86;;
67310;Laerm;65444;51.438;5.982;2024-03-02T00:26:58;41.34;32.28;54.52;;
67310;Laerm;65444;51.438;5.982;2024-03-02T00:27:12;32.67;30.94;34.36;;
67310;Laerm;65444;51.438;5.982;2024-03-02T00:27:24;53.57;31.32;65.39;;
67310;Laerm;65444;51.438;5.982;2024-03-02T00:27:36;53.32;31.95;66.77;;
67310;Laerm;65444;51.438;5.982;2024-03-02T00:27:47;41.48;31.47;58.04;;
67310;Laerm;65444;51.438;5.982;2024-03-02T00:27:59;39.56;31.30;51.73;;
67310;Laerm;65444;51.438;5.982;2024-03-02T00:28:19;47.83;32.00;61.91;;
67310;Laerm;65444;51.438;5.982;2024-03-02T00:28:35;54.40;32.79;69.97;;
67310;Laerm;65444;51.438;5.982;2024-03-02T00:28:49;40.91;33.52;55.15;;
67310;Laerm;65444;51.438;5.982;2024-03-02T00:29:01;44.66;32.23;58.21;;
67310;Laerm;65444;51.438;5.982;2024-03-02T00:29:12;38.04;34.68;48.06;;
67310;Laerm;65444;51.438;5.982;2024-03-02T00:29:26;42.16;32.79;54.77;;
67310;Laerm;65444;51.438;5.982;2024-03-02T00:29:37;41.32;33.71;56.23;;
67310;Laerm;65444;51.438;5.982;2024-03-02T00:29:49;49.39;32.65;61.74;;
67310;Laerm;65444;51.438;5.982;2024-03-02T00:30:00;59.27;34.74;73.51;;
67310;Laerm;65444;51.438;5.982;2024-03-02T00:31:30;44.91;31.37;59.56;;
67310;Laerm;65444;51.438;5.982;2024-03-02T00:31:42;52.37;35.56;67.02;;
67310;Laerm;65444;51.438;5.982;2024-03-02T00:31:53;42.27;32.41;55.84;;
67310;Laerm;65444;51.438;5.982;2024-03-02T00:32:12;33.71;31.89;35.65;;
67310;Laerm;65444;51.438;5.982;2024-03-02T00:33:06;41.11;33.19;59.78;;
67310;Laerm;65444;51.438;5.982;2024-03-02T00:33:19;49.70;36.40;61.27;;
67310;Laerm;65444;51.438;5.982;2024-03-02T00:33:35;52.17;34.04;65.07;;
67310;Laerm;65444;51.438;5.982;2024-03-02T00:37:28;55.40;35.78;73.37;;
67310;Laerm;65444;51.438;5.982;2024-03-02T00:37:39;38.18;35.34;45.67;;
67310;Laerm;65444;51.438;5.982;2024-03-02T00:37:52;48.26;36.85;65.70;;
67310;Laerm;65444;51.438;5.982;2024-03-02T00:38:05;45.70;35.76;64.70;;
67310;Laerm;65444;51.438;5.982;2024-03-02T00:38:16;48.53;35.10;62.65;;
67310;Laerm;65444;51.438;5.982;2024-03-02T00:38:28;38.39;35.26;49.13;;
67310;Laerm;65444;51.438;5.982;2024-03-02T00:39:01;55.72;35.32;72.05;;
67310;Laerm;65444;51.438;5.982;2024-03-02T00:39:12;46.15;35.14;60.95;;
67310;Laerm;65444;51.438;5.982;2024-03-02T00:39:26;47.28;35.96;65.95;;
67310;Laerm;65444;51.438;5.982;2024-03-02T00:39:36;39.17;36.81;47.92;;
67310;Laerm;65444;51.438;5.982;2024-03-02T00:39:48;39.10;35.70;50.12;;
67310;Laerm;65444;51.438;5.982;2024-03-02T00:40:06;46.79;35.10;59.70;;
67310;Laerm;65444;51.438;5.982;2024-03-02T00:40:18;42.50;33.40;55.31;;
67310;Laerm;65444;51.438;5.982;2024-03-02T00:40:29;38.21;34.19;47.41;;
67310;Laerm;65444;51.438;5.982;2024-03-02T00:40:40;44.96;33.81;61.35;;
67310;Laerm;65444;51.438;5.982;2024-03-02T00:40:50;41.29;34.33;54.85;;
67310;Laerm;65444;51.438;5.982;2024-03-02T00:41:05;43.12;33.73;55.66;;
67310;Laerm;65444;51.438;5.982;2024-03-02T00:41:38;52.24;33.38;72.24;;
67310;Laerm;65444;51.438;5.982;2024-03-02T00:42:31;60.68;36.08;81.09;;
67310;Laerm;65444;51.438;5.982;2024-03-02T00:42:44;54.75;35.56;71.63;;
67310;Laerm;65444;51.438;5.982;2024-03-02T00:42:55;41.84;35.24;54.27;;
67310;Laerm;65444;51.438;5.982;2024-03-02T00:43:11;51.26;35.15;63.14;;
67310;Laerm;65444;51.438;5.982;2024-03-02T00:45:33;50.89;35.15;70.10;;
67310;Laerm;65444;51.438;5.982;2024-03-02T00:45:53;61.71;35.69;79.24;;
67310;Laerm;65444;51.438;5.982;2024-03-02T00:46:15;61.24;38.73;75.32;;
67310;Laerm;65444;51.438;5.982;2024-03-02T00:46:31;65.50;34.84;80.54;;
67310;Laerm;65444;51.438;5.982;2024-03-02T00:46:52;52.91;36.49;70.77;;
67310;Laerm;65444;51.438;5.982;2024-03-02T00:47:03;59.23;36.75;75.37;;
67310;Laerm;65444;51.438;5.982;2024-03-02T00:47:16;47.25;37.57;60.81;;
67310;Laerm;65444;51.438;5.982;2024-03-02T00:47:27;53.32;36.20;66.80;;
67310;Laerm;65444;51.438;5.982;2024-03-02T00:47:39;58.46;37.49;72.21;;
67310;Laerm;65444;51.438;5.982;2024-03-02T00:47:49;57.64;39.66;73.02;;
67310;Laerm;65444;51.438;5.982;2024-03-02T00:48:00;62.51;36.53;81.18;;
67310;Laerm;65444;51.438;5.982;2024-03-02T00:48:11;50.06;34.46;66.56;;
67310;Laerm;65444;51.438;5.982;2024-03-02T00:48:21;56.12;35.58;70.98;;
67310;Laerm;65444;51.438;5.982;2024-03-02T00:48:35;55.83;36.06;73.57;;
67310;Laerm;65444;51.438;5.982;2024-03-02T00:49:03;46.22;36.10;63.93;;
67310;Laerm;65444;51.438;5.982;2024-03-02T00:49:23;51.42;40.08;66.02;;
67310;Laerm;65444;51.438;5.982;2024-03-02T00:49:34;54.73;36.12;70.90;;
67310;Laerm;65444;51.438;5.982;2024-03-02T00:49:45;56.12;39.94;69.56;;
67310;Laerm;65444;51.438;5.982;2024-03-02T00:49:57;47.84;37.15;59.47;;
67310;Laerm;65444;51.438;5.982;2024-03-02T00:50:09;52.05;34.30;67.03;;
67310;Laerm;65444;51.438;5.982;2024-03-02T00:50:19;42.53;34.08;56.17;;
67310;Laerm;65444;51.438;5.982;2024-03-02T00:50:37;56.47;35.73;70.80;;
67310;Laerm;65444;51.438;5.982;2024-03-02T00:50:50;49.92;36.68;67.82;;
67310;Laerm;65444;51.438;5.982;2024-03-02T00:51:03;52.81;35.47;69.71;;
67310;Laerm;65444;51.438;5.982;2024-03-02T00:51:16;46.60;34.09;64.09;;
67310;Laerm;65444;51.438;5.982;2024-03-02T00:51:33;55.94;37.60;70.25;;
67310;Laerm;65444;51.438;5.982;2024-03-02T00:51:45;55.76;35.55;74.41;;
67310;Laerm;65444;51.438;5.982;2024-03-02T00:51:56;47.35;35.63;62.39;;
67310;Laerm;65444;51.438;5.982;2024-03-02T00:52:08;56.50;37.62;70.78;;
67310;Laerm;65444;51.438;5.982;2024-03-02T00:52:21;42.45;36.04;52.32;;
67310;Laerm;65444;51.438;5.982;2024-03-02T00:52:31;49.10;35.80;62.75;;
67310;Laerm;65444;51.438;5.982;2024-03-02T00:52:43;48.57;34.92;65.21;;
67310;Laerm;65444;51.438;5.982;2024-03-02T00:52:54;51.34;35.69;65.84;;
67310;Laerm;65444;51.438;5.982;2024-03-02T00:53:05;66.96;40.43;79.35;;
67310;Laerm;65444;51.438;5.982;2024-03-02T00:53:17;52.21;39.19;64.82;;
67310;Laerm;65444;51.438;5.982;2024-03-02T00:53:32;61.65;40.12;77.69;;
67310;Laerm;65444;51.438;5.982;2024-03-02T00:53:43;62.86;39.41;75.36;;
67310;Laerm;65444;51.438;5.982;2024-03-02T00:54:00;60.97;36.62;74.87;;
67310;Laerm;65444;51.438;5.982;2024-03-02T00:54:13;54.74;36.84;70.93;;
67310;Laerm;65444;51.438;5.982;2024-03-02T00:54:27;57.24;38.30;69.05;;
67310;Laerm;65444;51.438;5.982;2024-03-02T00:54:38;52.53;36.30;68.78;;
67310;Laerm;65444;51.438;5.982;2024-03-02T00:54:49;51.80;35.74;64.41;;
67310;Laerm;65444;51.438;5.982;2024-03-02T00:55:01;53.61;35.38;72.71;;
67310;Laerm;65444;51.438;5.982;2024-03-02T00:55:11;37.15;35.13;41.13;;
67310;Laerm;65444;51.438;5.982;2024-03-02T00:55:22;36.73;34.26;39.12;;
67310;Laerm;65444;51.438;5.982;2024-03-02T00:55:36;49.59;34.61;64.44;;
67310;Laerm;65444;51.438;5.982;2024-03-02T00:55:47;62.42;42.74;77.55;;
67310;Laerm;65444;51.438;5.982;2024-03-02T00:56:00;57.23;39.77;71.96;;
67310;Laerm;65444;51.438;5.982;2024-03-02T00:56:16;52.62;36.43;70.78;;
67310;Laerm;65444;51.438;5.982;2024-03-02T00:56:30;48.81;36.91;64.81;;
67310;Laerm;65444;51.438;5.982;2024-03-02T00:56:51;53.89;36.16;66.27;;
67310;Laerm;65444;51.438;5.982;2024-03-02T00:57:01;59.55;36.90;74.92;;
67310;Laerm;65444;51.438;5.982;2024-03-02T00:57:13;47.83;36.58;65.40;;
67310;Laerm;65444;51.438;5.982;2024-03-02T00:57:24;61.29;35.73;74.29;;
67310;Laerm;65444;51.438;5.982;2024-03-02T00:57:37;52.28;33.65;66.06;;
67310;Laerm;65444;51.438;5.982;2024-03-02T00:57:50;36.09;32.45;46.18;;
67310;Laerm;65444;51.438;5.982;2024-03-02T00:58:01;59.75;36.23;79.08;;
67310;Laerm;65444;51.438;5.982;2024-03-02T00:58:14;62.30;38.84;80.28;;
67310;Laerm;65444;51.438;5.982;2024-03-02T00:58:27;72.04;46.34;83.38;;
67310;Laerm;65444;51.438;5.982;2024-03-02T00:58:38;63.10;39.10;76.05;;
67310;Laerm;65444;51.438;5.982;2024-03-02T00:58:49;55.66;36.69;68.52;;
67310;Laerm;65444;51.438;5.982;2024-03-02T00:59:00;50.71;35.40;63.75;;
67310;Laerm;65444;51.438;5.982;2024-03-02T00:59:58;49.24;33.74;67.49;;
67310;Laerm;65444;51.438;5.982;2024-03-02T01:00:09;55.62;33.63;71.23;;
67310;Laerm;65444;51.438;5.982;2024-03-02T01:00:23;54.27;36.60;68.78;;
67310;Laerm;65444;51.438;5.982;2024-03-02T01:00:33;54.85;35.68;68.35;;
67310;Laerm;65444;51.438;5.982;2024-03-02T01:00:57;57.12;34.72;72.05;;
67310;Laerm;65444;51.438;5.982;2024-03-02T01:01:08;55.74;32.67;72.09;;
67310;Laerm;65444;51.438;5.982;2024-03-02T01:01:20;55.67;35.85;68.88;;
67310;Laerm;65444;51.438;5.982;2024-03-02T01:01:55;51.16;33.24;68.97;;
67310;Laerm;65444;51.438;5.982;2024-03-02T01:02:06;56.40;35.45;73.52;;
67310;Laerm;65444;51.438;5.982;2024-03-02T01:02:16;54.10;36.07;68.19;;
67310;Laerm;65444;51.438;5.982;2024-03-02T01:02:30;52.03;33.29;66.46;;
67310;Laerm;65444;51.438;5.982;2024-03-02T01:02:47;37.12;33.07;48.89;;
67310;Laerm;65444;51.438;5.982;2024-03-02T01:02:58;44.23;33.93;61.52;;
67310;Laerm;65444;51.438;5.982;2024-03-02T01:03:10;56.05;35.51;70.99;;
67310;Laerm;65444;51.438;5.982;2024-03-02T01:03:23;48.58;35.10;63.68;;
67310;Laerm;65444;51.438;5.982;2024-03-02T01:03:34;57.68;37.31;73.91;;
67310;Laerm;65444;51.438;5.982;2024-03-02T01:04:05;53.55;34.87;66.13;;
67310;Laerm;65444;51.438;5.982;2024-03-02T01:04:16;56.22;34.36;74.74;;
67310;Laerm;65444;51.438;5.982;2024-03-02T01:04:27;59.89;37.70;74.86;;
67310;Laerm;65444;51.438;5.982;2024-03-02T01:06:59;55.27;33.51;74.57;;
67310;Laerm;65444;51.438;5.982;2024-03-02T01:07:12;51.38;33.60;67.56;;
67310;Laerm;65444;51.438;5.982;2024-03-02T01:07:23;40.62;33.13;53.65;;
67310;Laerm;65444;51.438;5.982;2024-03-02T01:08:47;62.25;32.25;85.15;;
67310;Laerm;65444;51.438;5.982;2024-03-02T01:09:04;51.02;34.84;68.69;;
67310;Laerm;65444;51.438;5.982;2024-03-02T01:11:19;48.45;37.06;65.34;;
67310;Laerm;65444;51.438;5.982;2024-03-02T01:12:25;43.50;36.21;61.51;;
67310;Laerm;65444;51.438;5.982;2024-03-02T01:17:47;42.46;34.23;56.28;;
67310;Laerm;65444;51.438;5.982;2024-03-02T01:18:01;38.51;35.45;41.04;;
67310;Laerm;65444;51.438;5.982;2024-03-02T01:18:14;43.91;36.21;55.25;;
67310;Laerm;65444;51.438;5.982;2024-03-02T01:18:25;46.05;41.80;54.27;;
67310;Laerm;65444;51.438;5.982;2024-03-02T01:18:36;43.19;39.84;52.11;;
67310;Laerm;65444;51.438;5.982;2024-03-02T01:18:47;47.85;40.52;60.99;;
67310;Laerm;65444;51.438;5.982;2024-03-02T01:19:10;53.26;38.34;68.31;;
67310;Laerm;65444;51.438;5.982;2024-03-02T01:19:21;39.67;35.45;52.13;;
67310;Laerm;65444;51.438;5.982;2024-03-02T01:19:32;46.77;37.00;59.33;;
67310;Laerm;65444;51.438;5.982;2024-03-02T01:19:46;46.93;34.90;61.80;;
67310;Laerm;65444;51.438;5.982;2024-03-02T01:19:56;41.64;34.71;56.58;;
67310;Laerm;65444;51.438;5.982;2024-03-02T01:20:09;41.47;33.97;59.53;;
67310;Laerm;65444;51.438;5.982;2024-03-02T01:20:21;37.83;34.62;46.60;;
67310;Laerm;65444;51.438;5.982;2024-03-02T01:22:02;45.37;36.45;60.80;;
67310;Laerm;65444;51.438;5.982;2024-03-02T01:22:17;41.79;34.51;57.72;;
67310;Laerm;65444;51.438;5.982;2024-03-02T01:22:35;51.75;35.43;72.10;;
67310;Laerm;65444;51.438;5.982;2024-03-02T01:22:47;39.38;36.52;47.50;;
67310;Laerm;65444;51.438;5.982;2024-03-02T01:23:00;39.88;35.25;50.01;;
67310;Laerm;65444;51.438;5.982;2024-03-02T01:23:12;40.33;34.82;54.99;;
67310;Laerm;65444;51.438;5.982;2024-03-02T01:23:31;52.16;38.02;71.41;;
67310;Laerm;65444;51.438;5.982;2024-03-02T01:23:42;54.27;38.78;67.27;;
67310;Laerm;65444;51.438;5.982;2024-03-02T01:23:56;41.79;36.12;53.19;;
67310;Laerm;65444;51.438;5.982;2024-03-02T01:24:15;38.49;36.28;42.49;;
67310;Laerm;65444;51.438;5.982;2024-03-02T01:24:27;37.50;33.87;44.26;;
67310;Laerm;65444;51.438;5.982;2024-03-02T01:24:38;35.53;33.94;41.70;;
67310;Laerm;65444;51.438;5.982;2024-03-02T01:24:49;35.44;33.40;38.96;;
67310;Laerm;65444;51.438;5.982;2024-03-02T01:25:00;37.43;34.26;45.43;;
67310;Laerm;65444;51.438;5.982;2024-03-02T01:25:11;40.94;34.47;55.95;;
67310;Laerm;65444;51.438;5.982;2024-03-02T01:26:39;39.23;33.15;56.13;;
67310;Laerm;65444;51.438;5.982;2024-03-02T01:26:49;37.10;33.98;46.52;;
67310;Laerm;65444;51.438;5.982;2024-03-02T01:27:01;42.86;36.73;56.64;;
67310;Laerm;65444;51.438;5.982;2024-03-02T01:27:12;41.66;37.02;55.65;;
67310;Laerm;65444;51.438;5.982;2024-03-02T01:27:23;43.26;36.94;55.76;;
67310;Laerm;65444;51.438;5.982;2024-03-02T01:27:34;44.38;36.61;59.91;;
67310;Laerm;65444;51.438;5.982;2024-03-02T01:27:53;44.80;36.88;59.05;;
67310;Laerm;65444;51.438;5.982;2024-03-02T01:28:04;51.53;37.31;71.47;;
67310;Laerm;65444;51.438;5.982;2024-03-02T01:28:19;50.75;38.02;65.46;;
67310;Laerm;65444;51.438;5.982;2024-03-02T01:29:46;45.44;34.18;63.33;;
67310;Laerm;65444;51.438;5.982;2024-03-02T01:29:56;43.74;36.94;53.21;;
67310;Laerm;65444;51.438;5.982;2024-03-02T01:30:10;37.39;34.76;45.34;;
67310;Laerm;65444;51.438;5.982;2024-03-02T01:30:21;40.42;34.31;51.86;;
67310;Laerm;65444;51.438;5.982;2024-03-02T01:30:33;40.50;34.99;54.59;;
67310;Laerm;65444;51.438;5.982;2024-03-02T01:31:51;48.39;33.91;66.41;;
67310;Laerm;65444;51.438;5.982;2024-03-02T01:32:04;36.70;33.27;54.11;;
67310;Laerm;65444;51.438;5.982;2024-03-02T01:32:19;40.33;34.53;44.76;;
67310;Laerm;65444;51.438;5.982;2024-03-02T01:32:33;39.10;34.24;53.87;;
67310;Laerm;65444;51.438;5.982;2024-03-02T01:32:44;41.54;35.52;55.20;;
67310;Laerm;65444;51.438;5.982;2024-03-02T01:32:56;43.74;37.40;55.05;;
67310;Laerm;65444;51.438;5.982;2024-03-02T01:33:44;47.80;38.71;60.23;;
67310;Laerm;65444;51.438;5.982;2024-03-02T01:33:55;44.89;37.35;56.30;;
67310;Laerm;65444;51.438;5.982;2024-03-02T01:34:12;47.40;38.72;62.57;;
67310;Laerm;65444;51.438;5.982;2024-03-02T01:35:08;44.64;33.10;62.72;;
67310;Laerm;65444;51.438;5.982;2024-03-02T01:35:19;41.83;34.18;54.37;;
67310;Laerm;65444;51.438;5.982;2024-03-02T01:35:30;38.02;35.23;45.91;;
67310;Laerm;65444;51.438;5.982;2024-03-02T01:35:43;37.22;34.65;45.95;;
67310;Laerm;65444;51.438;5.982;2024-03-02T01:35:53;37.90;34.47;48.88;;
67310;Laerm;65444;51.438;5.982;2024-03-02T01:36:04;37.03;34.43;42.38;;
67310;Laerm;65444;51.438;5.982;2024-03-02T01:36:15;37.15;33.23;48.57;;
67310;Laerm;65444;51.438;5.982;2024-03-02T01:36:36;34.97;31.69;45.80;;
67310;Laerm;65444;51.438;5.982;2024-03-02T01:36:48;34.84;32.23;46.71;;
67310;Laerm;65444;51.438;5.982;2024-03-02T01:37:02;38.94;33.34;53.13;;
67310;Laerm;65444;51.438;5.982;2024-03-02T01:37:13;37.03;34.25;44.80;;
67310;Laerm;65444;51.438;5.982;2024-03-02T01:37:24;35.84;32.32;44.21;;
67310;Laerm;65444;51.438;5.982;2024-03-02T01:37:35;36.10;33.09;46.62;;
67310;Laerm;65444;51.438;5.982;2024-03-02T01:37:46;33.66;31.02;40.90;;
67310;Laerm;65444;51.438;5.982;2024-03-02T01:37:57;32.74;30.63;37.44;;
67310;Laerm;65444;51.438;5.982;2024-03-02T01:38:11;32.68;30.30;42.66;;
67310;Laerm;65444;51.438;5.982;2024-03-02T01:38:22;36.02;30.97;45.25;;
67310;Laerm;65444;51.438;5.982;2024-03-02T01:38:33;40.02;30.81;52.94;;
67310;Laerm;65444;51.438;5.982;2024-03-02T01:38:44;33.40;30.60;43.17;;
67310;Laerm;65444;51.438;5.982;2024-03-02T01:38:55;32.17;30.37;36.37;;
67310;Laerm;65444;51.438;5.982;2024-03-02T01:39:06;31.47;29.87;34.71;;
67310;Laerm;65444;51.438;5.982;2024-03-02T01:39:19;34.65;30.14;47.03;;
67310;Laerm;65444;51.438;5.982;2024-03-02T01:39:29;39.14;31.14;52.45;;
67310;Laerm;65444;51.438;5.982;2024-03-02T01:39:44;44.57;33.68;60.89;;
67310;Laerm;65444;51.438;5.982;2024-03-02T01:40:04;39.76;32.74;55.29;;
67310;Laerm;65444;51.438;5.982;2024-03-02T01:40:19;36.80;30.90;51.18;;
67310;Laerm;65444;51.438;5.982;2024-03-02T01:40:30;32.02;30.29;38.20;;
67310;Laerm;65444;51.438;5.982;2024-03-02T01:40:41;31.37;29.92;32.98;;
67310;Laerm;65444;51.438;5.982;2024-03-02T01:40:52;31.89;29.82;33.83;;
67310;Laerm;65444;51.438;5.982;2024-03-02T01:41:03;34.10;31.95;37.61;;
67310;Laerm;65444;51.438;5.982;2024-03-02T01:41:16;40.95;32.57;54.34;;
67310;Laerm;65444;51.438;5.982;2024-03-02T01:41:26;42.85;32.29;54.47;;
67310;Laerm;65444;51.438;5.982;2024-03-02T01:41:39;39.24;31.59;56.32;;
67310;Laerm;65444;51.438;5.982;2024-03-02T01:41:51;41.55;32.81;59.95;;
67310;Laerm;65444;51.438;5.982;2024-03-02T01:42:02;45.52;33.85;58.78;;
67310;Laerm;65444;51.438;5.982;2024-03-02T01:42:12;37.56;31.74;48.34;;
67310;Laerm;65444;51.438;5.982;2024-03-02T01:42:24;33.15;31.09;44.57;;
67310;Laerm;65444;51.438;5.982;2024-03-02T01:42:38;36.70;31.26;46.62;;
67310;Laerm;65444;51.438;5.982;2024-03-02T01:42:49;33.74;31.13;40.79;;
67310;Laerm;65444;51.438;5.982;2024-03-02T01:43:06;34.26;30.49;47.36;;
67310;Laerm;65444;51.438;5.982;2024-03-02T01:43:24;31.39;29.88;36.78;;
67310;Laerm;65444;51.438;5.982;2024-03-02T01:43:35;31.53;30.16;35.58;;
67310;Laerm;65444;51.438;5.982;2024-03-02T01:43:47;31.69;29.97;35.72;;
67310;Laerm;65444;51.438;5.982;2024-03-02T01:43:58;31.39;29.99;33.18;;
67310;Laerm;65444;51.438;5.982;2024-03-02T01:44:10;35.14;29.57;46.79;;
67310;Laerm;65444;51.438;5.982;2024-03-02T01:44:20;44.11;31.93;56.53;;
67310;Laerm;65444;51.438;5.982;2024-03-02T01:44:33;35.63;31.91;44.45;;
67310;Laerm;65444;51.438;5.982;2024-03-02T01:44:44;33.21;30.83;39.39;;
67310;Laerm;65444;51.438;5.982;2024-03-02T01:44:57;32.72;30.20;38.90;;
67310;Laerm;65444;51.438;5.982;2024-03-02T01:45:17;32.81;29.78;44.48;;
67310;Laerm;65444;51.438;5.982;2024-03-02T01:45:27;33.82;30.44;45.32;;
67310;Laerm;65444;51.438;5.982;2024-03-02T01:45:38;31.82;30.14;34.23;;
67310;Laerm;65444;51.438;5.982;2024-03-02T01:45:49;32.58;30.07;42.12;;
67310;Laerm;65444;51.438;5.982;2024-03-02T01:46:00;31.47;29.67;32.75;;
67310;Laerm;65444;51.438;5.982;2024-03-02T01:46:10;35.98;31.08;48.91;;
67310;Laerm;65444;51.438;5.982;2024-03-02T01:46:20;39.40;33.00;51.39;;
67310;Laerm;65444;51.438;5.982;2024-03-02T01:46:33;48.94;34.25;61.94;;
67310;Laerm;65444;51.438;5.982;2024-03-02T01:46:45;40.61;32.97;57.54;;
67310;Laerm;65444;51.438;5.982;2024-03-02T01:46:59;34.58;32.27;41.90;;
67310;Laerm;65444;51.438;5.982;2024-03-02T01:47:12;36.01;31.74;49.11;;
67310;Laerm;65444;51.438;5.982;2024-03-02T01:47:22;44.18;32.40;60.29;;
67310;Laerm;65444;51.438;5.982;2024-03-02T01:47:35;34.03;30.83;50.96;;
67310;Laerm;65444;51.438;5.982;2024-03-02T01:47:46;32.49;30.43;38.82;;
67310;Laerm;65444;51.438;5.982;2024-03-02T01:48:17;30.52;29.11;32.93;;
67310;Laerm;65444;51.438;5.982;2024-03-02T01:48:40;38.27;29.55;54.54;;
67310;Laerm;65444;51.438;5.982;2024-03-02T01:48:51;38.05;33.10;50.62;;
67310;Laerm;65444;51.438;5.982;2024-03-02T01:49:07;34.84;30.81;45.35;;
67310;Laerm;65444;51.438;5.982;2024-03-02T01:49:17;36.51;31.47;45.78;;
67310;Laerm;65444;51.438;5.982;2024-03-02T01:49:29;35.59;31.29;49.78;;
67310;Laerm;65444;51.438;5.982;2024-03-02T01:49:39;34.01;31.85;39.93;;
67310;Laerm;65444;51.438;5.982;2024-03-02T01:50:33;35.65;29.67;49.04;;
67310;Laerm;65444;51.438;5.982;2024-03-02T01:50:44;34.44;29.98;44.58;;